sensor_id;sensor_type;location;lat;lon;timestamp;pressure;altitude;pressure_sealevel;temperature;humidity
65384;BME280;51986;52.788;41.368;2022-12-29T00:00:34;99180.41;;;0.37;58.70
65384;BME280;51986;52.788;41.368;2022-12-29T00:03:01;99178.16;;;0.23;58.37
65384;BME280;51986;52.788;41.368;2022-12-29T00:05:28;99219.22;;;0.34;58.39
65384;BME280;51986;52.788;41.368;2022-12-29T00:07:55;99206.78;;;0.27;57.66
65384;BME280;51986;52.788;41.368;2022-12-29T00:10:22;99203.66;;;0.34;58.32
65384;BME280;51986;52.788;41.368;2022-12-29T00:12:49;99217.25;;;0.67;57.29
65384;BME280;51986;52.788;41.368;2022-12-29T00:15:16;99187.41;;;0.37;57.99
65384;BME280;51986;52.788;41.368;2022-12-29T00:17:43;99183.00;;;0.37;57.42
65384;BME280;51986;52.788;41.368;2022-12-29T00:20:10;99222.91;;;0.33;57.32
65384;BME280;51986;52.788;41.368;2022-12-29T00:22:36;99206.25;;;0.34;57.50
65384;BME280;51986;52.788;41.368;2022-12-29T00:25:05;99201.72;;;0.18;57.69
65384;BME280;51986;52.788;41.368;2022-12-29T00:27:32;99221.28;;;0.28;56.60
65384;BME280;51986;52.788;41.368;2022-12-29T00:29:59;99215.53;;;0.35;56.91
65384;BME280;51986;52.788;41.368;2022-12-29T00:32:26;99201.50;;;0.48;57.12
65384;BME280;51986;52.788;41.368;2022-12-29T00:34:53;99201.59;;;0.39;56.62
65384;BME280;51986;52.788;41.368;2022-12-29T00:37:20;99213.81;;;0.26;57.08
65384;BME280;51986;52.788;41.368;2022-12-29T00:39:48;99195.88;;;0.09;57.89
65384;BME280;51986;52.788;41.368;2022-12-29T00:42:15;99217.81;;;0.24;57.54
65384;BME280;51986;52.788;41.368;2022-12-29T00:44:42;99224.41;;;0.21;58.61
65384;BME280;51986;52.788;41.368;2022-12-29T00:47:09;99216.16;;;0.07;59.25
65384;BME280;51986;52.788;41.368;2022-12-29T00:49:36;99231.94;;;0.02;59.32
65384;BME280;51986;52.788;41.368;2022-12-29T00:52:06;99223.53;;;0.05;59.42
65384;BME280;51986;52.788;41.368;2022-12-29T00:54:36;99236.41;;;0.26;59.29
65384;BME280;51986;52.788;41.368;2022-12-29T00:57:04;99217.34;;;-0.03;60.07
65384;BME280;51986;52.788;41.368;2022-12-29T00:59:35;99229.16;;;0.19;59.86
65384;BME280;51986;52.788;41.368;2022-12-29T01:02:02;99240.28;;;0.20;59.17
65384;BME280;51986;52.788;41.368;2022-12-29T01:04:48;99228.28;;;0.15;59.57
65384;BME280;51986;52.788;41.368;2022-12-29T01:07:15;99239.66;;;0.23;59.31
65384;BME280;51986;52.788;41.368;2022-12-29T01:09:44;99252.72;;;0.14;59.52
65384;BME280;51986;52.788;41.368;2022-12-29T01:12:11;99248.41;;;0.18;59.70
65384;BME280;51986;52.788;41.368;2022-12-29T01:14:40;99247.09;;;0.24;59.41
65384;BME280;51986;52.788;41.368;2022-12-29T01:17:07;99256.19;;;0.30;59.11
65384;BME280;51986;52.788;41.368;2022-12-29T01:19:52;99255.97;;;0.23;59.03
65384;BME280;51986;52.788;41.368;2022-12-29T01:22:20;99247.28;;;-0.05;60.37
65384;BME280;51986;52.788;41.368;2022-12-29T01:24:49;99235.91;;;-0.13;60.51
65384;BME280;51986;52.788;41.368;2022-12-29T01:27:15;99246.25;;;-0.25;60.33
65384;BME280;51986;52.788;41.368;2022-12-29T01:29:43;99253.78;;;0.01;59.96
65384;BME280;51986;52.788;41.368;2022-12-29T01:32:10;99270.16;;;-0.19;61.55
65384;BME280;51986;52.788;41.368;2022-12-29T01:34:37;99243.69;;;-0.13;60.91
65384;BME280;51986;52.788;41.368;2022-12-29T01:37:04;99272.13;;;-0.04;61.14
65384;BME280;51986;52.788;41.368;2022-12-29T01:39:33;99273.88;;;0.04;61.02
65384;BME280;51986;52.788;41.368;2022-12-29T01:42:00;99261.69;;;-0.29;61.76
65384;BME280;51986;52.788;41.368;2022-12-29T01:52:47;99293.50;;;-0.07;61.62
65384;BME280;51986;52.788;41.368;2022-12-29T01:55:17;99279.56;;;-0.15;62.14
65384;BME280;51986;52.788;41.368;2022-12-29T01:57:49;99261.28;;;-0.18;62.58
65384;BME280;51986;52.788;41.368;2022-12-29T02:00:18;99293.91;;;-0.17;62.93
65384;BME280;51986;52.788;41.368;2022-12-29T02:02:51;99312.19;;;-0.14;62.31
65384;BME280;51986;52.788;41.368;2022-12-29T02:08:14;99295.31;;;-0.20;63.38
65384;BME280;51986;52.788;41.368;2022-12-29T02:10:43;99296.69;;;-0.23;63.55
65384;BME280;51986;52.788;41.368;2022-12-29T02:13:11;99285.59;;;-0.44;63.89
65384;BME280;51986;52.788;41.368;2022-12-29T02:24:07;99305.69;;;-0.20;64.58
65384;BME280;51986;52.788;41.368;2022-12-29T02:32:35;99308.91;;;-0.23;65.10
65384;BME280;51986;52.788;41.368;2022-12-29T02:37:38;99310.28;;;-0.26;65.23
65384;BME280;51986;52.788;41.368;2022-12-29T02:45:48;99320.94;;;-0.39;66.40
65384;BME280;51986;52.788;41.368;2022-12-29T02:48:41;99316.56;;;-0.27;66.50
65384;BME280;51986;52.788;41.368;2022-12-29T02:51:19;99328.88;;;-0.24;66.06
65384;BME280;51986;52.788;41.368;2022-12-29T02:53:48;99333.88;;;-0.18;65.58
65384;BME280;51986;52.788;41.368;2022-12-29T02:56:17;99343.16;;;-0.17;65.77
65384;BME280;51986;52.788;41.368;2022-12-29T02:58:45;99339.56;;;-0.04;65.33
65384;BME280;51986;52.788;41.368;2022-12-29T03:06:37;99349.78;;;-0.08;64.81
65384;BME280;51986;52.788;41.368;2022-12-29T03:09:30;99349.72;;;0.01;65.10
65384;BME280;51986;52.788;41.368;2022-12-29T03:12:11;99357.34;;;-0.15;65.82
65384;BME280;51986;52.788;41.368;2022-12-29T03:15:01;99352.31;;;0.01;64.85
65384;BME280;51986;52.788;41.368;2022-12-29T03:17:50;99357.69;;;-0.04;65.06
65384;BME280;51986;52.788;41.368;2022-12-29T03:20:24;99353.91;;;-0.07;64.99
65384;BME280;51986;52.788;41.368;2022-12-29T03:22:58;99365.97;;;0.10;64.98
65384;BME280;51986;52.788;41.368;2022-12-29T03:25:47;99358.53;;;-0.12;65.47
65384;BME280;51986;52.788;41.368;2022-12-29T03:28:25;99371.63;;;-0.09;64.98
65384;BME280;51986;52.788;41.368;2022-12-29T03:30:55;99377.56;;;-0.08;65.46
65384;BME280;51986;52.788;41.368;2022-12-29T03:33:42;99383.22;;;-0.06;65.28
65384;BME280;51986;52.788;41.368;2022-12-29T03:36:16;99386.91;;;0.05;64.94
65384;BME280;51986;52.788;41.368;2022-12-29T03:38:53;99359.47;;;0.04;65.05
65384;BME280;51986;52.788;41.368;2022-12-29T03:41:30;99388.63;;;0.01;65.45
65384;BME280;51986;52.788;41.368;2022-12-29T03:43:59;99359.97;;;-0.03;65.03
65384;BME280;51986;52.788;41.368;2022-12-29T03:46:26;99398.19;;;0.09;64.71
65384;BME280;51986;52.788;41.368;2022-12-29T03:48:53;99393.38;;;-0.01;65.69
65384;BME280;51986;52.788;41.368;2022-12-29T03:51:20;99382.91;;;0.08;65.88
65384;BME280;51986;52.788;41.368;2022-12-29T03:53:48;99395.81;;;0.16;65.05
65384;BME280;51986;52.788;41.368;2022-12-29T03:56:15;99392.91;;;0.18;65.17
65384;BME280;51986;52.788;41.368;2022-12-29T03:58:44;99382.47;;;0.06;65.07
65384;BME280;51986;52.788;41.368;2022-12-29T04:01:16;99364.59;;;-0.08;66.02
65384;BME280;51986;52.788;41.368;2022-12-29T04:03:44;99402.59;;;0.09;66.13
65384;BME280;51986;52.788;41.368;2022-12-29T04:06:11;99396.47;;;0.13;65.93
65384;BME280;51986;52.788;41.368;2022-12-29T04:08:58;99391.97;;;0.01;65.23
65384;BME280;51986;52.788;41.368;2022-12-29T04:11:26;99417.88;;;-0.11;66.11
65384;BME280;51986;52.788;41.368;2022-12-29T04:14:00;99393.09;;;0.13;66.12
65384;BME280;51986;52.788;41.368;2022-12-29T04:16:29;99427.81;;;0.20;66.08
65384;BME280;51986;52.788;41.368;2022-12-29T04:18:56;99417.88;;;0.22;66.00
65384;BME280;51986;52.788;41.368;2022-12-29T04:21:23;99414.66;;;0.25;66.34
65384;BME280;51986;52.788;41.368;2022-12-29T04:23:50;99412.66;;;0.10;65.97
65384;BME280;51986;52.788;41.368;2022-12-29T04:26:17;99416.75;;;0.11;66.88
65384;BME280;51986;52.788;41.368;2022-12-29T04:28:52;99421.53;;;0.09;66.71
65384;BME280;51986;52.788;41.368;2022-12-29T04:31:37;99433.13;;;0.03;66.64
65384;BME280;51986;52.788;41.368;2022-12-29T04:34:06;99428.34;;;-0.07;66.79
65384;BME280;51986;52.788;41.368;2022-12-29T04:36:33;99409.31;;;-0.11;66.15
65384;BME280;51986;52.788;41.368;2022-12-29T04:39:00;99394.81;;;-0.12;65.83
65384;BME280;51986;52.788;41.368;2022-12-29T04:41:27;99430.69;;;-0.14;66.17
65384;BME280;51986;52.788;41.368;2022-12-29T04:43:54;99421.66;;;-0.08;66.14
65384;BME280;51986;52.788;41.368;2022-12-29T04:46:21;99450.34;;;-0.13;66.51
65384;BME280;51986;52.788;41.368;2022-12-29T04:48:55;99433.84;;;-0.30;66.51
65384;BME280;51986;52.788;41.368;2022-12-29T04:51:28;99431.88;;;-0.33;67.00
65384;BME280;51986;52.788;41.368;2022-12-29T04:53:55;99441.63;;;-0.30;66.77
65384;BME280;51986;52.788;41.368;2022-12-29T04:56:24;99439.28;;;-0.23;66.44
65384;BME280;51986;52.788;41.368;2022-12-29T04:58:51;99431.63;;;-0.19;65.88
65384;BME280;51986;52.788;41.368;2022-12-29T05:04:05;99427.59;;;-0.29;66.34
65384;BME280;51986;52.788;41.368;2022-12-29T05:06:32;99425.50;;;-0.14;65.38
65384;BME280;51986;52.788;41.368;2022-12-29T05:09:01;99440.19;;;-0.48;66.35
65384;BME280;51986;52.788;41.368;2022-12-29T05:11:46;99458.66;;;-0.20;66.03
65384;BME280;51986;52.788;41.368;2022-12-29T05:14:13;99449.47;;;-0.17;65.30
65384;BME280;51986;52.788;41.368;2022-12-29T05:16:41;99458.66;;;-0.20;65.10
65384;BME280;51986;52.788;41.368;2022-12-29T05:19:09;99465.25;;;-0.31;65.61
65384;BME280;51986;52.788;41.368;2022-12-29T05:21:36;99442.50;;;-0.55;65.76
65384;BME280;51986;52.788;41.368;2022-12-29T05:24:04;99480.03;;;-0.61;65.45
65384;BME280;51986;52.788;41.368;2022-12-29T05:26:31;99442.69;;;-0.60;65.42
65384;BME280;51986;52.788;41.368;2022-12-29T05:29:04;99473.59;;;-0.55;65.46
65384;BME280;51986;52.788;41.368;2022-12-29T05:31:32;99461.72;;;-0.56;64.53
65384;BME280;51986;52.788;41.368;2022-12-29T05:33:59;99484.41;;;-0.83;65.40
65384;BME280;51986;52.788;41.368;2022-12-29T05:39:32;99505.56;;;-0.81;64.83
65384;BME280;51986;52.788;41.368;2022-12-29T05:42:02;99465.91;;;-1.11;66.11
65384;BME280;51986;52.788;41.368;2022-12-29T05:44:55;99474.59;;;-1.15;65.96
65384;BME280;51986;52.788;41.368;2022-12-29T05:47:31;99467.16;;;-1.34;66.57
65384;BME280;51986;52.788;41.368;2022-12-29T05:50:22;99506.59;;;-1.29;66.83
65384;BME280;51986;52.788;41.368;2022-12-29T05:53:07;99493.34;;;-1.36;66.34
65384;BME280;51986;52.788;41.368;2022-12-29T05:55:36;99507.06;;;-1.35;65.94
65384;BME280;51986;52.788;41.368;2022-12-29T05:58:06;99505.66;;;-1.15;65.37
65384;BME280;51986;52.788;41.368;2022-12-29T06:00:33;99502.16;;;-1.11;64.88
65384;BME280;51986;52.788;41.368;2022-12-29T06:03:00;99519.94;;;-1.01;64.86
65384;BME280;51986;52.788;41.368;2022-12-29T06:05:28;99529.56;;;-1.10;64.40
65384;BME280;51986;52.788;41.368;2022-12-29T06:10:42;99517.69;;;-1.11;63.50
65384;BME280;51986;52.788;41.368;2022-12-29T06:13:27;99504.28;;;-1.21;64.15
65384;BME280;51986;52.788;41.368;2022-12-29T06:15:56;99522.88;;;-1.28;62.90
65384;BME280;51986;52.788;41.368;2022-12-29T06:18:25;99517.69;;;-1.28;63.09
65384;BME280;51986;52.788;41.368;2022-12-29T06:20:52;99522.53;;;-1.09;62.06
65384;BME280;51986;52.788;41.368;2022-12-29T06:23:19;99523.91;;;-1.12;61.66
65384;BME280;51986;52.788;41.368;2022-12-29T06:25:49;99541.41;;;-0.91;61.84
65384;BME280;51986;52.788;41.368;2022-12-29T06:28:16;99524.00;;;-0.82;61.00
65384;BME280;51986;52.788;41.368;2022-12-29T06:30:46;99534.22;;;-0.86;60.20
65384;BME280;51986;52.788;41.368;2022-12-29T06:33:13;99537.97;;;-0.66;59.50
65384;BME280;51986;52.788;41.368;2022-12-29T06:35:42;99542.06;;;-0.65;59.88
65384;BME280;51986;52.788;41.368;2022-12-29T06:38:09;99539.38;;;-0.68;59.31
65384;BME280;51986;52.788;41.368;2022-12-29T06:40:36;99536.09;;;-0.48;58.98
65384;BME280;51986;52.788;41.368;2022-12-29T06:43:03;99536.31;;;-0.70;58.66
65384;BME280;51986;52.788;41.368;2022-12-29T06:45:56;99528.50;;;-0.53;58.35
65384;BME280;51986;52.788;41.368;2022-12-29T06:48:23;99544.31;;;-0.55;58.81
65384;BME280;51986;52.788;41.368;2022-12-29T06:53:35;99574.75;;;-0.34;57.23
65384;BME280;51986;52.788;41.368;2022-12-29T06:56:03;99538.19;;;-0.41;57.45
65384;BME280;51986;52.788;41.368;2022-12-29T07:01:15;99532.75;;;-0.57;56.88
65384;BME280;51986;52.788;41.368;2022-12-29T07:03:42;99545.41;;;-0.56;56.57
65384;BME280;51986;52.788;41.368;2022-12-29T07:06:10;99544.56;;;-0.68;57.17
65384;BME280;51986;52.788;41.368;2022-12-29T07:08:37;99543.00;;;-0.31;55.97
65384;BME280;51986;52.788;41.368;2022-12-29T07:11:04;99548.34;;;-0.28;55.64
65384;BME280;51986;52.788;41.368;2022-12-29T07:13:31;99541.81;;;-0.04;54.77
65384;BME280;51986;52.788;41.368;2022-12-29T07:15:58;99535.66;;;0.09;55.01
65384;BME280;51986;52.788;41.368;2022-12-29T07:18:25;99545.19;;;0.17;54.49
65384;BME280;51986;52.788;41.368;2022-12-29T07:20:52;99540.69;;;0.26;54.03
65384;BME280;51986;52.788;41.368;2022-12-29T07:26:07;99528.81;;;0.46;53.61
65384;BME280;51986;52.788;41.368;2022-12-29T07:28:35;99536.34;;;0.39;53.87
65384;BME280;51986;52.788;41.368;2022-12-29T07:31:23;99531.09;;;0.27;54.06
65384;BME280;51986;52.788;41.368;2022-12-29T07:33:50;99540.81;;;0.51;53.86
65384;BME280;51986;52.788;41.368;2022-12-29T07:36:17;99549.56;;;0.25;53.85
65384;BME280;51986;52.788;41.368;2022-12-29T07:38:44;99528.94;;;0.29;53.26
65384;BME280;51986;52.788;41.368;2022-12-29T07:41:11;99537.53;;;0.63;53.39
65384;BME280;51986;52.788;41.368;2022-12-29T07:43:38;99541.19;;;0.83;51.89
65384;BME280;51986;52.788;41.368;2022-12-29T07:46:23;99554.38;;;1.23;50.20
65384;BME280;51986;52.788;41.368;2022-12-29T07:49:10;99545.63;;;1.27;50.92
65384;BME280;51986;52.788;41.368;2022-12-29T07:51:37;99540.78;;;1.38;50.93
65384;BME280;51986;52.788;41.368;2022-12-29T07:54:04;99550.97;;;1.55;50.54
65384;BME280;51986;52.788;41.368;2022-12-29T07:56:31;99535.38;;;1.68;49.62
65384;BME280;51986;52.788;41.368;2022-12-29T07:58:58;99510.13;;;1.56;49.70
65384;BME280;51986;52.788;41.368;2022-12-29T08:01:25;99549.56;;;1.82;49.80
65384;BME280;51986;52.788;41.368;2022-12-29T08:03:52;99546.50;;;1.80;48.64
65384;BME280;51986;52.788;41.368;2022-12-29T08:06:23;99543.69;;;2.10;48.66
65384;BME280;51986;52.788;41.368;2022-12-29T08:08:50;99541.50;;;2.24;48.24
65384;BME280;51986;52.788;41.368;2022-12-29T08:11:17;99528.97;;;2.70;47.30
65384;BME280;51986;52.788;41.368;2022-12-29T08:13:44;99520.69;;;2.52;47.98
65384;BME280;51986;52.788;41.368;2022-12-29T08:16:10;99533.09;;;2.71;47.61
65384;BME280;51986;52.788;41.368;2022-12-29T08:18:38;99533.19;;;2.75;47.33
65384;BME280;51986;52.788;41.368;2022-12-29T08:21:05;99521.59;;;2.72;47.23
65384;BME280;51986;52.788;41.368;2022-12-29T08:23:32;99512.59;;;2.42;47.35
65384;BME280;51986;52.788;41.368;2022-12-29T08:26:01;99536.09;;;2.57;47.87
65384;BME280;51986;52.788;41.368;2022-12-29T08:28:29;99537.75;;;2.38;47.96
65384;BME280;51986;52.788;41.368;2022-12-29T08:31:00;99545.16;;;2.35;47.57
65384;BME280;51986;52.788;41.368;2022-12-29T08:33:28;99547.72;;;2.48;47.75
65384;BME280;51986;52.788;41.368;2022-12-29T08:36:04;99540.44;;;2.53;47.93
65384;BME280;51986;52.788;41.368;2022-12-29T08:38:31;99527.16;;;2.30;48.73
65384;BME280;51986;52.788;41.368;2022-12-29T08:40:59;99511.56;;;2.58;48.66
65384;BME280;51986;52.788;41.368;2022-12-29T08:43:27;99528.06;;;2.78;48.44
65384;BME280;51986;52.788;41.368;2022-12-29T08:45:54;99533.41;;;2.98;48.34
65384;BME280;51986;52.788;41.368;2022-12-29T08:48:21;99519.97;;;3.11;48.10
65384;BME280;51986;52.788;41.368;2022-12-29T08:50:48;99507.09;;;2.87;48.21
65384;BME280;51986;52.788;41.368;2022-12-29T08:53:16;99529.59;;;2.79;48.49
65384;BME280;51986;52.788;41.368;2022-12-29T08:55:53;99522.84;;;2.63;49.83
65384;BME280;51986;52.788;41.368;2022-12-29T08:58:28;99527.63;;;2.76;50.05
65384;BME280;51986;52.788;41.368;2022-12-29T09:00:56;99539.00;;;2.84;49.50
65384;BME280;51986;52.788;41.368;2022-12-29T09:03:24;99519.81;;;2.76;49.77
65384;BME280;51986;52.788;41.368;2022-12-29T09:06:12;99532.94;;;2.80;49.57
65384;BME280;51986;52.788;41.368;2022-12-29T09:08:39;99549.53;;;2.87;49.89
65384;BME280;51986;52.788;41.368;2022-12-29T09:11:12;99511.34;;;2.79;49.52
65384;BME280;51986;52.788;41.368;2022-12-29T09:13:40;99532.31;;;2.71;50.60
65384;BME280;51986;52.788;41.368;2022-12-29T09:16:07;99547.72;;;2.76;49.66
65384;BME280;51986;52.788;41.368;2022-12-29T09:18:34;99523.47;;;2.59;51.25
65384;BME280;51986;52.788;41.368;2022-12-29T09:21:20;99539.28;;;2.39;51.68
65384;BME280;51986;52.788;41.368;2022-12-29T09:23:48;99526.59;;;2.37;51.77
65384;BME280;51986;52.788;41.368;2022-12-29T09:26:15;99543.88;;;2.29;52.19
65384;BME280;51986;52.788;41.368;2022-12-29T09:28:42;99538.97;;;2.28;52.27
65384;BME280;51986;52.788;41.368;2022-12-29T09:31:10;99543.88;;;2.17;52.64
65384;BME280;51986;52.788;41.368;2022-12-29T09:33:37;99547.22;;;2.30;52.22
65384;BME280;51986;52.788;41.368;2022-12-29T09:36:04;99566.22;;;2.18;52.80
65384;BME280;51986;52.788;41.368;2022-12-29T09:38:31;99537.13;;;2.28;52.72
65384;BME280;51986;52.788;41.368;2022-12-29T09:41:11;99542.41;;;2.44;52.52
65384;BME280;51986;52.788;41.368;2022-12-29T09:43:56;99538.84;;;2.36;52.81
65384;BME280;51986;52.788;41.368;2022-12-29T09:46:40;99535.44;;;2.08;53.93
65384;BME280;51986;52.788;41.368;2022-12-29T09:49:13;99543.25;;;2.08;53.06
65384;BME280;51986;52.788;41.368;2022-12-29T09:51:44;99538.69;;;2.17;53.15
65384;BME280;51986;52.788;41.368;2022-12-29T09:54:41;99543.03;;;2.13;53.44
65384;BME280;51986;52.788;41.368;2022-12-29T09:57:22;99541.06;;;2.22;53.32
65384;BME280;51986;52.788;41.368;2022-12-29T09:59:52;99555.81;;;2.18;53.63
65384;BME280;51986;52.788;41.368;2022-12-29T10:02:39;99549.88;;;2.46;53.28
65384;BME280;51986;52.788;41.368;2022-12-29T10:05:46;99546.47;;;2.29;53.52
65384;BME280;51986;52.788;41.368;2022-12-29T10:16:43;99533.84;;;2.44;53.06
65384;BME280;51986;52.788;41.368;2022-12-29T10:24:47;99528.31;;;2.45;53.07
65384;BME280;51986;52.788;41.368;2022-12-29T10:27:16;99541.06;;;2.63;52.69
65384;BME280;51986;52.788;41.368;2022-12-29T10:29:51;99533.19;;;2.47;52.75
65384;BME280;51986;52.788;41.368;2022-12-29T10:32:29;99539.88;;;2.60;52.56
65384;BME280;51986;52.788;41.368;2022-12-29T10:35:05;99521.63;;;2.60;52.79
65384;BME280;51986;52.788;41.368;2022-12-29T10:37:53;99543.50;;;2.71;52.80
65384;BME280;51986;52.788;41.368;2022-12-29T10:40:29;99522.44;;;2.48;53.30
65384;BME280;51986;52.788;41.368;2022-12-29T10:42:59;99526.56;;;2.49;53.65
65384;BME280;51986;52.788;41.368;2022-12-29T10:45:29;99533.78;;;2.28;54.54
65384;BME280;51986;52.788;41.368;2022-12-29T10:48:06;99528.09;;;2.10;54.90
65384;BME280;51986;52.788;41.368;2022-12-29T10:50:36;99521.78;;;1.99;55.09
65384;BME280;51986;52.788;41.368;2022-12-29T10:53:05;99517.78;;;2.01;55.57
65384;BME280;51986;52.788;41.368;2022-12-29T10:55:35;99520.84;;;1.91;55.55
65384;BME280;51986;52.788;41.368;2022-12-29T10:58:06;99525.72;;;1.93;55.88
65384;BME280;51986;52.788;41.368;2022-12-29T11:00:33;99529.63;;;1.62;56.83
65384;BME280;51986;52.788;41.368;2022-12-29T11:03:39;99525.06;;;1.83;56.51
65384;BME280;51986;52.788;41.368;2022-12-29T11:06:25;99537.97;;;1.68;57.34
65384;BME280;51986;52.788;41.368;2022-12-29T11:09:12;99525.06;;;1.83;56.85
65384;BME280;51986;52.788;41.368;2022-12-29T11:11:40;99524.09;;;1.88;55.86
65384;BME280;51986;52.788;41.368;2022-12-29T11:14:17;99511.41;;;1.87;56.70
65384;BME280;51986;52.788;41.368;2022-12-29T11:16:57;99536.34;;;1.88;56.74
65384;BME280;51986;52.788;41.368;2022-12-29T11:19:30;99549.34;;;1.75;57.52
65384;BME280;51986;52.788;41.368;2022-12-29T11:24:45;99537.41;;;1.50;57.68
65384;BME280;51986;52.788;41.368;2022-12-29T11:27:22;99533.28;;;1.37;58.71
65384;BME280;51986;52.788;41.368;2022-12-29T11:29:50;99542.19;;;1.48;58.26
65384;BME280;51986;52.788;41.368;2022-12-29T11:32:26;99530.06;;;1.52;58.46
65384;BME280;51986;52.788;41.368;2022-12-29T11:34:58;99531.34;;;1.46;58.53
65384;BME280;51986;52.788;41.368;2022-12-29T11:37:33;99534.16;;;1.41;59.03
65384;BME280;51986;52.788;41.368;2022-12-29T11:40:17;99529.38;;;1.30;59.75
65384;BME280;51986;52.788;41.368;2022-12-29T11:42:54;99543.81;;;1.40;59.37
65384;BME280;51986;52.788;41.368;2022-12-29T11:45:25;99543.59;;;1.33;59.37
65384;BME280;51986;52.788;41.368;2022-12-29T11:48:17;99537.72;;;1.24;59.91
65384;BME280;51986;52.788;41.368;2022-12-29T11:50:50;99565.56;;;1.23;59.54
65384;BME280;51986;52.788;41.368;2022-12-29T11:53:38;99557.00;;;1.35;59.82
65384;BME280;51986;52.788;41.368;2022-12-29T11:56:10;99557.75;;;1.23;59.46
65384;BME280;51986;52.788;41.368;2022-12-29T11:58:39;99552.53;;;1.11;60.17
65384;BME280;51986;52.788;41.368;2022-12-29T12:01:20;99558.47;;;1.12;59.92
65384;BME280;51986;52.788;41.368;2022-12-29T12:04:05;99568.72;;;0.96;60.69
65384;BME280;51986;52.788;41.368;2022-12-29T12:09:27;99543.19;;;0.98;60.77
65384;BME280;51986;52.788;41.368;2022-12-29T12:11:57;99572.75;;;1.05;60.70
65384;BME280;51986;52.788;41.368;2022-12-29T12:17:25;99586.91;;;0.96;61.26
65384;BME280;51986;52.788;41.368;2022-12-29T12:20:05;99568.31;;;1.06;60.88
65384;BME280;51986;52.788;41.368;2022-12-29T12:25:24;99571.53;;;0.91;61.96
65384;BME280;51986;52.788;41.368;2022-12-29T12:30:40;99547.47;;;0.81;63.05
65384;BME280;51986;52.788;41.368;2022-12-29T12:44:38;99561.34;;;0.86;63.67
65384;BME280;51986;52.788;41.368;2022-12-29T12:50:15;99562.50;;;0.88;63.52
65384;BME280;51986;52.788;41.368;2022-12-29T12:53:00;99581.22;;;0.81;63.92
65384;BME280;51986;52.788;41.368;2022-12-29T12:55:45;99592.94;;;0.88;64.21
65384;BME280;51986;52.788;41.368;2022-12-29T12:58:30;99570.56;;;0.74;64.60
65384;BME280;51986;52.788;41.368;2022-12-29T13:07:01;99575.06;;;0.65;64.73
65384;BME280;51986;52.788;41.368;2022-12-29T13:12:34;99586.06;;;0.71;65.41
65384;BME280;51986;52.788;41.368;2022-12-29T13:15:55;99564.69;;;0.65;65.32
65384;BME280;51986;52.788;41.368;2022-12-29T13:18:06;99568.00;;;0.53;65.67
65384;BME280;51986;52.788;41.368;2022-12-29T13:20:47;99558.75;;;0.44;66.06
65384;BME280;51986;52.788;41.368;2022-12-29T13:23:49;99594.00;;;0.45;66.33
65384;BME280;51986;52.788;41.368;2022-12-29T13:26:34;99589.38;;;0.50;66.20
65384;BME280;51986;52.788;41.368;2022-12-29T13:34:37;99589.28;;;0.68;65.49
65384;BME280;51986;52.788;41.368;2022-12-29T13:37:12;99606.00;;;0.58;66.11
65384;BME280;51986;52.788;41.368;2022-12-29T13:39:47;99602.63;;;0.58;66.30
65384;BME280;51986;52.788;41.368;2022-12-29T13:42:18;99585.16;;;0.67;66.07
65384;BME280;51986;52.788;41.368;2022-12-29T13:47:41;99601.88;;;0.57;65.93
65384;BME280;51986;52.788;41.368;2022-12-29T13:50:29;99609.78;;;0.61;65.87
65384;BME280;51986;52.788;41.368;2022-12-29T14:08:47;99597.03;;;0.89;66.05
65384;BME280;51986;52.788;41.368;2022-12-29T14:11:17;99629.06;;;0.80;65.83
65384;BME280;51986;52.788;41.368;2022-12-29T14:13:46;99601.88;;;0.78;66.15
65384;BME280;51986;52.788;41.368;2022-12-29T14:16:27;99590.59;;;0.74;66.59
65384;BME280;51986;52.788;41.368;2022-12-29T14:19:03;99621.81;;;0.65;67.04
65384;BME280;51986;52.788;41.368;2022-12-29T14:21:32;99605.94;;;0.67;66.95
65384;BME280;51986;52.788;41.368;2022-12-29T14:26:54;99608.81;;;0.65;67.14
65384;BME280;51986;52.788;41.368;2022-12-29T14:31:53;99623.97;;;0.63;67.08
65384;BME280;51986;52.788;41.368;2022-12-29T14:37:01;99613.66;;;0.75;67.14
65384;BME280;51986;52.788;41.368;2022-12-29T14:39:41;99610.47;;;0.70;67.47
65384;BME280;51986;52.788;41.368;2022-12-29T14:47:25;99618.38;;;0.94;66.70
65384;BME280;51986;52.788;41.368;2022-12-29T14:49:54;99609.63;;;0.99;66.64
65384;BME280;51986;52.788;41.368;2022-12-29T14:52:24;99606.41;;;1.02;66.31
65384;BME280;51986;52.788;41.368;2022-12-29T14:54:54;99594.25;;;0.94;66.82
65384;BME280;51986;52.788;41.368;2022-12-29T14:57:41;99604.28;;;1.16;66.90
65384;BME280;51986;52.788;41.368;2022-12-29T15:00:24;99618.03;;;1.17;66.55
65384;BME280;51986;52.788;41.368;2022-12-29T15:03:22;99602.13;;;1.18;66.36
65384;BME280;51986;52.788;41.368;2022-12-29T15:06:08;99594.84;;;1.12;66.58
65384;BME280;51986;52.788;41.368;2022-12-29T15:08:48;99591.00;;;0.97;66.95
65384;BME280;51986;52.788;41.368;2022-12-29T15:11:22;99599.91;;;1.08;66.30
65384;BME280;51986;52.788;41.368;2022-12-29T15:13:50;99595.66;;;0.91;66.79
65384;BME280;51986;52.788;41.368;2022-12-29T15:16:37;99593.41;;;1.02;66.74
65384;BME280;51986;52.788;41.368;2022-12-29T15:19:21;99596.47;;;1.04;67.15
65384;BME280;51986;52.788;41.368;2022-12-29T15:21:48;99591.06;;;1.09;66.61
65384;BME280;51986;52.788;41.368;2022-12-29T15:24:15;99595.19;;;1.10;66.51
65384;BME280;51986;52.788;41.368;2022-12-29T15:26:52;99580.94;;;1.28;65.93
65384;BME280;51986;52.788;41.368;2022-12-29T15:34:45;99583.94;;;1.18;66.03
65384;BME280;51986;52.788;41.368;2022-12-29T15:37:22;99578.22;;;1.25;66.32
65384;BME280;51986;52.788;41.368;2022-12-29T15:39:50;99566.03;;;1.38;65.77
65384;BME280;51986;52.788;41.368;2022-12-29T15:45:09;99605.84;;;1.29;65.93
65384;BME280;51986;52.788;41.368;2022-12-29T15:47:38;99582.13;;;1.31;65.76
65384;BME280;51986;52.788;41.368;2022-12-29T15:50:28;99597.59;;;1.27;66.25
65384;BME280;51986;52.788;41.368;2022-12-29T15:52:56;99583.38;;;1.13;66.78
65384;BME280;51986;52.788;41.368;2022-12-29T15:55:34;99572.69;;;1.14;67.08
65384;BME280;51986;52.788;41.368;2022-12-29T15:58:18;99580.16;;;1.16;67.00